createdAt,value
2023-02-16T00:04:00.245Z,14.43
2023-02-16T00:08:02.074Z,14.93
2023-02-16T00:12:15.920Z,15.27
2023-02-16T00:16:19.181Z,15.63
2023-02-16T00:20:20.820Z,16.00
2023-02-16T00:24:23.206Z,16.33
2023-02-16T00:28:25.986Z,15.53
2023-02-16T00:32:27.438Z,16.03
2023-02-16T00:36:28.859Z,15.67
2023-02-16T00:40:30.265Z,15.77
2023-02-16T00:44:36.202Z,15.00
2023-02-16T00:48:37.537Z,15.67
2023-02-16T00:52:40.569Z,15.97
2023-02-16T00:56:42.740Z,16.17
2023-02-16T01:00:48.949Z,15.83
2023-02-16T01:04:50.687Z,14.90
2023-02-16T01:08:54.823Z,15.30
2023-02-16T01:12:56.445Z,15.03
2023-02-16T01:16:59.234Z,15.30
2023-02-16T01:21:00.681Z,15.97
2023-02-16T01:25:02.127Z,15.93
2023-02-16T01:29:03.489Z,15.17
2023-02-16T01:33:06.214Z,16.13
2023-02-16T01:37:14.176Z,15.27
2023-02-16T01:41:25.516Z,15.30
2023-02-16T01:45:32.283Z,15.90
2023-02-16T01:49:35.213Z,16.33
2023-02-16T01:53:42.641Z,15.67
2023-02-16T01:57:46.984Z,15.70
2023-02-16T02:01:54.546Z,16.37
2023-02-16T02:05:57.405Z,15.47
2023-02-16T02:10:02.943Z,16.83
2023-02-16T02:14:09.272Z,15.50
2023-02-16T02:18:10.708Z,15.23
2023-02-16T02:22:47.883Z,15.33
2023-02-16T02:27:11.420Z,14.47
2023-02-16T02:31:20.125Z,14.37
2023-02-16T02:35:35.738Z,15.17
2023-02-16T02:39:46.348Z,15.77
2023-02-16T02:43:55.852Z,14.20
2023-02-16T02:47:57.480Z,14.60
2023-02-16T02:51:59.484Z,15.10
2023-02-16T02:56:02.696Z,15.50
2023-02-16T03:00:10.291Z,15.97
2023-02-16T03:04:15.479Z,16.53
2023-02-16T03:08:22.427Z,15.40
2023-02-16T03:12:23.817Z,16.67
2023-02-16T03:16:31.462Z,15.37
2023-02-16T03:20:32.913Z,16.90
2023-02-16T03:24:34.395Z,17.20
2023-02-16T03:28:38.964Z,17.90
2023-02-16T03:32:42.265Z,16.97
2023-02-16T03:36:46.797Z,18.13
2023-02-16T03:40:49.762Z,16.53
2023-02-16T03:44:51.852Z,16.73
2023-02-16T03:48:54.580Z,17.50
2023-02-16T03:52:56.975Z,17.63
2023-02-16T03:56:58.409Z,16.83
2023-02-16T04:00:59.807Z,16.77
2023-02-16T04:05:02.533Z,16.60
2023-02-16T04:09:04.117Z,16.70
2023-02-16T04:13:05.661Z,16.77
2023-02-16T04:17:07.135Z,16.43
2023-02-16T04:21:09.986Z,17.47
2023-02-16T04:25:11.863Z,15.27
2023-02-16T04:29:13.197Z,16.20
2023-02-16T04:33:14.550Z,16.20
2023-02-16T04:37:17.295Z,17.43
2023-02-16T04:41:18.694Z,17.87
2023-02-16T04:45:20.123Z,16.43
2023-02-16T04:49:22.083Z,18.33
2023-02-16T04:53:24.790Z,18.20
2023-02-16T04:57:26.164Z,16.80
2023-02-16T05:01:28.297Z,17.33
2023-02-16T05:05:29.767Z,16.97
2023-02-16T05:09:32.523Z,16.77
2023-02-16T05:13:34.392Z,16.77
2023-02-16T05:17:35.762Z,16.70
2023-02-16T05:21:37.459Z,17.53
2023-02-16T05:25:40.222Z,17.27
2023-02-16T05:29:41.655Z,16.77
2023-02-16T05:33:43.018Z,16.43
2023-02-16T05:37:44.427Z,16.47
2023-02-16T05:41:47.308Z,15.63
2023-02-16T05:45:48.680Z,16.10
2023-02-16T05:49:51.055Z,16.17
2023-02-16T05:53:52.458Z,17.97
2023-02-16T05:57:55.213Z,17.03
2023-02-16T06:01:56.670Z,17.17
2023-02-16T06:06:00.308Z,17.13
2023-02-16T06:10:01.662Z,17.53
2023-02-16T06:14:06.426Z,17.43
2023-02-16T06:18:07.817Z,18.37
2023-02-16T06:22:09.274Z,18.07
2023-02-16T06:26:10.669Z,18.57
2023-02-16T06:30:13.805Z,19.87
2023-02-16T06:34:15.243Z,19.27
2023-02-16T06:38:16.594Z,18.20
2023-02-16T06:42:17.925Z,18.40
2023-02-16T06:46:20.623Z,17.47
2023-02-16T06:50:22.110Z,18.43
2023-02-16T06:54:23.539Z,18.83
2023-02-16T06:58:24.924Z,18.57
2023-02-16T07:02:27.683Z,18.03
2023-02-16T07:06:29.136Z,18.20
2023-02-16T07:10:40.408Z,18.07
2023-02-16T07:14:50.212Z,17.83
2023-02-16T07:18:52.896Z,18.63
2023-02-16T07:22:54.298Z,17.33
2023-02-16T07:26:55.741Z,18.63
2023-02-16T07:30:57.199Z,18.13
2023-02-16T07:34:59.901Z,18.73
2023-02-16T07:39:01.394Z,16.97
2023-02-16T07:43:04.395Z,16.90
2023-02-16T07:47:05.888Z,17.87
2023-02-16T07:51:08.717Z,18.80
2023-02-16T07:55:10.808Z,19.73
2023-02-16T07:59:14.783Z,19.13
2023-02-16T08:03:16.285Z,18.50
2023-02-16T08:07:19.818Z,17.70
2023-02-16T08:11:23.443Z,17.60
2023-02-16T08:15:24.823Z,18.23
2023-02-16T08:19:26.675Z,20.37
2023-02-16T08:23:29.711Z,19.80
2023-02-16T08:27:31.214Z,19.67
2023-02-16T08:31:35.104Z,19.87
2023-02-16T08:35:38.052Z,21.03
2023-02-16T08:39:40.816Z,18.90
2023-02-16T08:43:42.524Z,19.23
2023-02-16T08:47:44.095Z,19.73
2023-02-16T08:51:48.468Z,19.60
2023-02-16T08:55:55.544Z,19.27
2023-02-16T08:59:56.917Z,20.23
2023-02-16T09:03:58.520Z,19.77
2023-02-16T09:07:59.935Z,19.80
2023-02-16T09:12:02.640Z,18.80
2023-02-16T09:16:05.030Z,20.10
2023-02-16T09:20:07.990Z,19.37
2023-02-16T09:24:09.461Z,19.77
2023-02-16T09:28:12.248Z,19.67
2023-02-16T09:32:13.598Z,19.10
2023-02-16T09:36:14.964Z,19.07
2023-02-16T09:40:16.800Z,17.70
2023-02-16T09:44:33.934Z,16.87
2023-02-16T09:48:39.999Z,17.33
2023-02-16T09:52:48.495Z,18.10
2023-02-16T09:56:56.893Z,18.37
2023-02-16T10:01:06.955Z,18.13
2023-02-16T10:05:17.166Z,18.70
2023-02-16T10:09:20.334Z,19.20
2023-02-16T10:13:28.953Z,19.53
2023-02-16T10:17:41.466Z,19.47
2023-02-16T10:21:47.166Z,19.13
2023-02-16T10:25:54.537Z,19.90
2023-02-16T10:29:56.284Z,19.97
2023-02-16T10:34:23.066Z,19.97
2023-02-16T10:38:31.880Z,19.77
2023-02-16T10:42:38.856Z,20.67
2023-02-16T10:46:44.797Z,19.37
2023-02-16T10:50:55.637Z,20.47
2023-02-16T10:54:57.086Z,19.73
2023-02-16T10:59:01.128Z,20.27
2023-02-16T11:03:03.283Z,18.93
2023-02-16T11:07:08.390Z,20.30
2023-02-16T11:11:10.487Z,20.07
2023-02-16T11:15:24.038Z,21.10
2023-02-16T11:19:25.878Z,21.03
2023-02-16T11:23:30.671Z,20.73
2023-02-16T11:27:33.062Z,20.10
2023-02-16T11:31:37.479Z,20.13
2023-02-16T11:35:42.904Z,20.77
2023-02-16T11:39:52.745Z,20.77
2023-02-16T11:43:55.796Z,21.30
2023-02-16T11:48:00.078Z,21.37
2023-02-16T11:52:19.075Z,20.70
2023-02-16T11:56:25.033Z,21.17
2023-02-16T12:00:26.509Z,20.37
2023-02-16T12:04:42.941Z,19.83
2023-02-16T12:08:59.254Z,19.97
2023-02-16T12:13:14.494Z,19.83
2023-02-16T12:17:26.930Z,20.70
2023-02-16T12:21:34.892Z,20.47
2023-02-16T12:25:39.251Z,20.87
2023-02-16T12:29:49.791Z,21.40
2023-02-16T12:34:15.104Z,22.17
2023-02-16T12:38:31.056Z,21.37
2023-02-16T12:42:48.281Z,22.47
2023-02-16T12:46:58.953Z,21.50
2023-02-16T12:51:03.540Z,22.00
2023-02-16T12:55:17.183Z,22.10
2023-02-16T12:59:24.576Z,19.80
2023-02-16T13:03:34.816Z,17.63
2023-02-16T13:07:39.280Z,19.20
2023-02-16T13:11:46.287Z,19.33
2023-02-16T13:15:50.676Z,18.40
2023-02-16T13:19:53.447Z,18.70
2023-02-16T13:24:01.915Z,17.83
2023-02-16T13:28:13.217Z,15.30
2023-02-16T13:32:31.024Z,13.13
2023-02-16T13:37:00.524Z,11.80
2023-02-16T13:41:44.711Z,10.17
2023-02-16T13:45:48.208Z,11.13
2023-02-16T13:49:56.851Z,11.30
2023-02-16T13:54:01.304Z,11.70
2023-02-16T13:58:06.286Z,11.13
2023-02-16T14:02:12.344Z,11.10
2023-02-16T14:06:32.945Z,9.77
2023-02-16T14:11:04.113Z,10.40
2023-02-16T14:15:16.379Z,10.27
2023-02-16T14:19:22.312Z,10.40
2023-02-16T14:23:29.248Z,9.70
2023-02-16T14:27:44.052Z,9.23
2023-02-16T14:31:53.695Z,9.80
2023-02-16T14:36:14.605Z,8.77
2023-02-16T14:40:22.160Z,8.63
2023-02-16T14:44:39.895Z,8.93
2023-02-16T14:49:09.317Z,8.60
2023-02-16T14:53:40.454Z,9.13
2023-02-16T14:57:47.543Z,9.00
2023-02-16T15:01:50.312Z,9.30
2023-02-16T15:05:56.311Z,8.27
2023-02-16T15:09:58.686Z,8.20
2023-02-16T15:14:06.802Z,7.93
2023-02-16T15:18:15.754Z,8.23
2023-02-16T15:22:21.485Z,8.30
2023-02-16T15:26:24.729Z,8.13
2023-02-16T15:30:28.534Z,7.37
2023-02-16T15:34:34.840Z,7.40
2023-02-16T15:38:38.127Z,7.43
2023-02-16T15:42:43.020Z,6.70
2023-02-16T15:46:44.422Z,7.27
2023-02-16T15:50:48.077Z,7.00
2023-02-16T15:54:50.201Z,8.03
2023-02-16T15:58:51.906Z,6.53
2023-02-16T16:02:55.397Z,6.70
2023-02-16T16:06:58.803Z,6.53
2023-02-16T16:11:00.683Z,6.43
2023-02-16T16:15:02.945Z,6.07
2023-02-16T16:19:13.883Z,6.07
2023-02-16T16:23:26.773Z,5.87
2023-02-16T16:27:30.861Z,5.77
2023-02-16T16:31:42.681Z,5.40
2023-02-16T16:35:46.846Z,5.30
2023-02-16T16:40:01.286Z,5.10
2023-02-16T16:44:02.931Z,5.77
2023-02-16T16:48:10.523Z,5.93
2023-02-16T16:52:11.929Z,6.00
2023-02-16T16:56:14.816Z,6.53
2023-02-16T17:00:17.694Z,7.20
2023-02-16T17:04:19.219Z,5.93
2023-02-16T17:08:20.645Z,5.93
2023-02-16T17:12:24.693Z,5.87
2023-02-16T17:16:27.911Z,6.47
2023-02-16T17:20:29.474Z,6.17
2023-02-16T17:24:30.875Z,7.00
2023-02-16T17:28:33.880Z,6.23
2023-02-16T17:32:35.328Z,6.37
2023-02-16T17:36:37.265Z,6.90
2023-02-16T17:40:39.422Z,6.77
2023-02-16T17:44:42.161Z,7.63
2023-02-16T17:48:43.980Z,8.13
2023-02-16T17:52:45.476Z,7.30
2023-02-16T17:56:47.360Z,7.40
2023-02-16T18:00:51.481Z,7.40
2023-02-16T18:04:52.922Z,7.87
2023-02-16T18:08:54.295Z,7.73
2023-02-16T18:12:55.675Z,8.47
2023-02-16T18:16:58.873Z,7.83
2023-02-16T18:21:00.402Z,8.13
2023-02-16T18:25:01.777Z,8.23
2023-02-16T18:29:03.347Z,8.20
2023-02-16T18:33:06.038Z,9.00
2023-02-16T18:37:07.425Z,8.50
2023-02-16T18:41:09.338Z,8.53
2023-02-16T18:45:11.319Z,9.37
2023-02-16T18:49:14.091Z,8.70
2023-02-16T18:53:15.680Z,8.80
2023-02-16T18:57:17.113Z,9.40
2023-02-16T19:01:25.991Z,9.40
2023-02-16T19:05:28.858Z,9.80
2023-02-16T19:09:30.252Z,10.23
2023-02-16T19:13:31.624Z,9.43
2023-02-16T19:17:33.079Z,9.87
2023-02-16T19:21:35.835Z,10.43
2023-02-16T19:25:37.211Z,10.10
2023-02-16T19:29:38.661Z,8.13
2023-02-16T19:33:41.442Z,7.27
2023-02-16T19:37:50.290Z,7.10
2023-02-16T19:41:51.694Z,6.50
2023-02-16T19:45:53.145Z,6.40
2023-02-16T19:49:54.741Z,5.27
2023-02-16T19:53:58.555Z,4.83
2023-02-16T19:57:59.931Z,6.10
2023-02-16T20:02:01.387Z,5.50
2023-02-16T20:06:12.861Z,5.03
2023-02-16T20:10:15.579Z,4.70
2023-02-16T20:14:17.281Z,4.00
2023-02-16T20:18:18.629Z,4.00
2023-02-16T20:22:19.973Z,4.07
2023-02-16T20:26:25.437Z,4.30
2023-02-16T20:30:26.891Z,5.47
2023-02-16T20:34:28.348Z,3.97
2023-02-16T20:38:29.732Z,4.40
2023-02-16T20:42:32.453Z,4.80
2023-02-16T20:46:35.087Z,4.40
2023-02-16T20:50:36.910Z,4.83
2023-02-16T20:54:38.350Z,4.90
2023-02-16T20:58:42.375Z,5.03
2023-02-16T21:02:43.790Z,4.93
2023-02-16T21:06:45.302Z,5.30
2023-02-16T21:10:46.987Z,5.07
2023-02-16T21:14:49.779Z,5.23
2023-02-16T21:18:51.507Z,5.20
2023-02-16T21:22:52.902Z,5.70
2023-02-16T21:26:54.553Z,6.83
2023-02-16T21:31:02.503Z,6.27
2023-02-16T21:35:04.270Z,5.60
2023-02-16T21:39:05.617Z,5.67
2023-02-16T21:43:06.999Z,6.03
2023-02-16T21:47:11.164Z,5.40
2023-02-16T21:51:13.500Z,6.60
2023-02-16T21:55:14.907Z,6.50
2023-02-16T21:59:19.185Z,6.20
2023-02-16T22:03:23.676Z,6.40
2023-02-16T22:07:25.036Z,6.23
2023-02-16T22:11:26.512Z,6.80
2023-02-16T22:15:27.943Z,7.00
2023-02-16T22:19:30.665Z,7.60
2023-02-16T22:23:32.202Z,7.63
2023-02-16T22:27:33.560Z,8.70
2023-02-16T22:31:35.753Z,7.57
2023-02-16T22:35:38.542Z,6.77
2023-02-16T22:39:39.916Z,6.80
2023-02-16T22:43:41.275Z,6.17
2023-02-16T22:47:42.651Z,6.20
2023-02-16T22:51:45.418Z,5.83
2023-02-16T22:55:46.848Z,6.50
2023-02-16T22:59:48.213Z,5.87
2023-02-16T23:03:51.556Z,6.43
2023-02-16T23:07:54.219Z,6.93
2023-02-16T23:11:55.570Z,6.07
2023-02-16T23:16:02.416Z,6.30
2023-02-16T23:20:04.999Z,6.70
2023-02-16T23:24:13.770Z,6.13
2023-02-16T23:28:16.977Z,6.20
2023-02-16T23:32:18.372Z,5.67
2023-02-16T23:36:19.765Z,5.60
2023-02-16T23:40:22.476Z,5.53
2023-02-16T23:44:23.802Z,5.43
2023-02-16T23:48:25.658Z,5.13
2023-02-16T23:52:27.028Z,5.63
2023-02-16T23:56:29.743Z,5.57
